Time;durP1;ratioP1;P1;durP2;ratioP2;P2;SDS_P1;SDS_P2;PMS_P1;PMS_P2;Temp;Humidity;BMP_temperature;BMP_pressure;BME280_temperature;BME280_humidity;BME280_pressure;Samples;Min_cycle;Max_cycle;Signal;HPM_P1;HPM_P2
2024/04/05 00:00:43;;;;;;;11.98;4.90;;;20.90;67.40;;;;;;5050804;28;20020;-72
2024/04/05 00:03:08;;;;;;;16.05;5.57;;;20.80;67.50;;;;;;5050492;28;20323;-72
2024/04/05 00:05:37;;;;;;;9.20;4.38;;;20.80;67.60;;;;;;5047787;28;20446;-72
2024/04/05 00:08:03;;;;;;;12.00;4.78;;;20.80;67.50;;;;;;5032293;28;20067;-72
2024/04/05 00:10:29;;;;;;;9.02;5.00;;;20.80;67.50;;;;;;5050599;28;20342;-72
2024/04/05 00:12:56;;;;;;;12.27;4.90;;;20.80;67.50;;;;;;5050361;28;20037;-72
2024/04/05 00:15:22;;;;;;;10.55;5.32;;;20.90;67.40;;;;;;5049968;28;20028;-72
2024/04/05 00:17:48;;;;;;;10.15;4.80;;;20.80;67.40;;;;;;5049953;28;20397;-72
2024/04/05 00:20:13;;;;;;;9.68;4.78;;;20.80;67.40;;;;;;5050476;28;20051;-72
2024/04/05 00:22:40;;;;;;;11.10;5.13;;;20.90;67.50;;;;;;5049712;28;20384;-72
2024/04/05 00:25:06;;;;;;;11.57;4.57;;;20.80;67.30;;;;;;5050826;28;20029;-72
2024/04/05 00:27:32;;;;;;;10.93;5.03;;;20.80;67.20;;;;;;5050541;28;20035;-72
2024/04/05 00:29:59;;;;;;;10.02;5.28;;;20.80;67.20;;;;;;5050412;28;20090;-72
2024/04/05 00:32:26;;;;;;;15.77;6.03;;;20.90;67.30;;;;;;5048832;28;20462;-72
2024/04/05 00:34:51;;;;;;;9.57;6.07;;;20.80;67.50;;;;;;5050091;28;20025;-72
2024/04/05 00:37:17;;;;;;;15.80;6.93;;;20.80;67.40;;;;;;5049348;28;20306;-72
2024/04/05 00:39:43;;;;;;;14.45;6.93;;;20.90;67.40;;;;;;5050550;28;20417;-72
2024/04/05 00:42:08;;;;;;;20.83;7.97;;;20.90;67.40;;;;;;5049382;28;20429;-72
2024/04/05 00:44:34;;;;;;;15.68;6.93;;;20.90;67.50;;;;;;5047021;28;20093;-72
2024/04/05 00:47:00;;;;;;;15.68;7.60;;;20.90;67.40;;;;;;5049627;28;20448;-72
2024/04/05 00:49:27;;;;;;;15.10;7.65;;;20.80;67.30;;;;;;5049213;28;20028;-72
2024/04/05 00:51:54;;;;;;;17.10;8.50;;;20.90;67.40;;;;;;5049109;28;20040;-72
2024/04/05 00:54:20;;;;;;;18.63;8.32;;;20.90;67.40;;;;;;5049090;28;20407;-72
2024/04/05 00:56:47;;;;;;;17.08;8.32;;;20.90;67.30;;;;;;5049280;28;20020;-72
2024/04/05 00:59:15;;;;;;;16.63;7.53;;;20.90;67.40;;;;;;5049166;28;20036;-72
2024/04/05 01:01:41;;;;;;;21.85;10.27;;;20.90;67.40;;;;;;5050299;28;20033;-72
2024/04/05 01:04:07;;;;;;;20.00;8.63;;;20.90;67.40;;;;;;5048927;28;20044;-72
2024/04/05 01:06:33;;;;;;;16.38;8.15;;;20.90;67.30;;;;;;5048909;28;20111;-72
2024/04/05 01:08:59;;;;;;;18.45;8.60;;;20.90;67.40;;;;;;5049549;28;20611;-72
2024/04/05 01:11:25;;;;;;;14.50;8.30;;;20.90;67.30;;;;;;5048176;28;20449;-72
2024/04/05 01:13:52;;;;;;;21.60;8.77;;;20.90;67.30;;;;;;5048820;28;20060;-72
2024/04/05 01:16:18;;;;;;;17.90;8.82;;;20.90;67.30;;;;;;5047977;28;20037;-72
2024/04/05 01:18:44;;;;;;;18.13;8.52;;;20.90;67.20;;;;;;5049373;28;20464;-72
2024/04/05 01:21:10;;;;;;;18.67;8.63;;;20.90;67.10;;;;;;5048353;28;20197;-72
2024/04/05 01:23:43;;;;;;;18.77;8.55;;;20.90;67.20;;;;;;5048883;28;20157;-72
2024/04/05 01:26:09;;;;;;;15.90;8.55;;;20.90;67.20;;;;;;5047881;28;20039;-72
2024/04/05 01:28:35;;;;;;;20.48;8.88;;;20.90;67.10;;;;;;5045915;28;20032;-72
2024/04/05 01:31:01;;;;;;;19.50;9.10;;;20.90;67.10;;;;;;5048529;28;20445;-72
2024/04/05 01:33:27;;;;;;;20.60;8.93;;;20.90;67.20;;;;;;5030708;28;20077;-72
2024/04/05 01:35:53;;;;;;;17.55;9.18;;;20.90;67.20;;;;;;5048395;28;20035;-72
2024/04/05 01:38:19;;;;;;;14.05;8.25;;;20.90;67.10;;;;;;5030304;28;20036;-72
2024/04/05 01:40:45;;;;;;;18.85;9.52;;;20.90;67.10;;;;;;5048110;28;20290;-72
2024/04/05 01:43:11;;;;;;;15.85;8.90;;;20.90;67.00;;;;;;5047478;28;20036;-72
2024/04/05 01:45:36;;;;;;;22.23;9.88;;;20.90;67.00;;;;;;5048265;28;20043;-72
2024/04/05 01:48:02;;;;;;;18.77;8.23;;;20.90;67.00;;;;;;5048688;28;20040;-72
2024/04/05 01:50:28;;;;;;;23.60;8.68;;;20.90;66.90;;;;;;5048049;28;20327;-72
2024/04/05 01:52:54;;;;;;;17.25;8.85;;;20.90;66.90;;;;;;5048632;28;20385;-72
2024/04/05 01:55:20;;;;;;;16.27;7.97;;;20.90;66.80;;;;;;5048545;28;20406;-72
2024/04/05 01:57:45;;;;;;;15.68;8.30;;;20.90;67.00;;;;;;5047988;28;20452;-72
2024/04/05 02:00:12;;;;;;;16.25;8.50;;;20.90;67.00;;;;;;5045094;28;20330;-72
2024/04/05 02:02:38;;;;;;;19.08;8.70;;;20.90;67.00;;;;;;5047717;28;20044;-72
2024/04/05 02:05:04;;;;;;;21.20;9.40;;;20.90;67.00;;;;;;5047618;28;20098;-72
2024/04/05 02:07:30;;;;;;;18.27;9.88;;;20.90;67.00;;;;;;5047639;28;20395;-72
2024/04/05 02:09:56;;;;;;;15.60;8.15;;;20.90;66.90;;;;;;5047997;28;20075;-72
2024/04/05 02:12:24;;;;;;;12.55;7.53;;;20.90;66.90;;;;;;5047402;28;20330;-72
2024/04/05 02:14:49;;;;;;;15.63;7.78;;;20.90;66.80;;;;;;5048041;28;20050;-72
2024/04/05 02:17:15;;;;;;;13.02;7.70;;;20.90;66.80;;;;;;5046990;28;20403;-72
2024/04/05 02:19:41;;;;;;;19.95;7.68;;;20.90;66.80;;;;;;5047834;28;20342;-72
2024/04/05 02:22:08;;;;;;;12.55;7.07;;;20.90;66.70;;;;;;5047325;28;20032;-72
2024/04/05 02:24:34;;;;;;;14.40;7.45;;;20.90;66.70;;;;;;5048749;28;20369;-72
2024/04/05 02:27:01;;;;;;;14.02;7.30;;;20.90;66.70;;;;;;5048175;28;20441;-72
2024/04/05 02:29:28;;;;;;;13.13;7.15;;;20.90;66.70;;;;;;5047501;28;20044;-72
2024/04/05 02:31:53;;;;;;;15.15;7.03;;;20.90;66.70;;;;;;5047745;28;20036;-72
2024/04/05 02:34:20;;;;;;;14.77;7.57;;;20.90;66.80;;;;;;5048030;28;20424;-72
2024/04/05 02:36:45;;;;;;;17.15;7.93;;;20.90;66.70;;;;;;5047363;28;20418;-72
2024/04/05 02:39:11;;;;;;;13.30;7.35;;;20.90;66.70;;;;;;5047908;28;20094;-72
2024/04/05 02:41:37;;;;;;;10.50;5.88;;;20.90;66.80;;;;;;5047382;28;20544;-72
2024/04/05 02:44:03;;;;;;;16.13;7.20;;;20.90;66.80;;;;;;5047275;28;20466;-72
2024/04/05 02:46:29;;;;;;;12.52;6.45;;;20.90;66.70;;;;;;5047511;28;20430;-72
2024/04/05 02:48:55;;;;;;;13.68;6.28;;;20.90;66.60;;;;;;5048001;28;20454;-72
2024/04/05 02:51:21;;;;;;;15.68;6.82;;;20.90;66.60;;;;;;5046994;28;20102;-72
2024/04/05 02:53:47;;;;;;;15.35;7.13;;;20.90;66.60;;;;;;5047804;28;20067;-72
2024/04/05 02:56:16;;;;;;;12.30;6.05;;;20.90;66.60;;;;;;5046920;28;20469;-72
2024/04/05 02:58:42;;;;;;;15.07;6.88;;;20.90;66.70;;;;;;5048026;28;20306;-72
2024/04/05 03:01:08;;;;;;;12.90;5.75;;;20.90;66.60;;;;;;5046506;28;20029;-72
2024/04/05 03:03:34;;;;;;;12.77;5.85;;;20.90;66.50;;;;;;5048091;28;20457;-72
2024/04/05 03:06:01;;;;;;;9.00;5.85;;;20.90;66.70;;;;;;5048381;28;20032;-72
2024/04/05 03:08:27;;;;;;;12.18;5.15;;;20.90;66.50;;;;;;5047214;28;20040;-72
2024/04/05 03:10:53;;;;;;;10.13;5.22;;;20.90;66.50;;;;;;5048171;28;20372;-72
2024/04/05 03:13:18;;;;;;;12.10;5.35;;;20.90;66.60;;;;;;5047615;28;20036;-72
2024/04/05 03:15:46;;;;;;;12.55;6.00;;;20.90;66.70;;;;;;5047658;28;20028;-72
2024/04/05 03:18:11;;;;;;;11.85;5.43;;;20.90;66.60;;;;;;5048005;28;20418;-72
2024/04/05 03:20:37;;;;;;;13.82;5.00;;;20.90;66.60;;;;;;5047231;28;20033;-72
2024/04/05 03:23:04;;;;;;;13.77;5.78;;;20.80;66.50;;;;;;5047077;28;20090;-72
2024/04/05 03:25:30;;;;;;;11.25;5.30;;;20.90;66.60;;;;;;5048444;28;20056;-72
2024/04/05 03:27:56;;;;;;;11.70;5.45;;;20.90;66.60;;;;;;5048155;28;20469;-72
2024/04/05 03:30:21;;;;;;;9.93;5.45;;;20.90;66.50;;;;;;5028966;28;20437;-72
2024/04/05 03:32:47;;;;;;;10.52;5.05;;;20.80;66.50;;;;;;5048166;28;20033;-72
2024/04/05 03:35:14;;;;;;;9.65;4.93;;;20.90;66.60;;;;;;5050847;28;20358;-72
2024/04/05 03:37:40;;;;;;;12.10;4.78;;;20.90;66.60;;;;;;5050893;28;20511;-72
2024/04/05 03:40:06;;;;;;;10.15;5.18;;;20.80;67.50;;;;;;5050594;28;20319;-72
2024/04/05 03:42:32;;;;;;;8.90;4.60;;;20.90;66.60;;;;;;5050932;28;20033;-72
2024/04/05 03:44:58;;;;;;;8.40;4.35;;;20.90;66.50;;;;;;5051364;28;20041;-72
2024/04/05 03:47:24;;;;;;;10.63;4.80;;;20.90;66.60;;;;;;5050163;28;20041;-72
2024/04/05 03:49:50;;;;;;;8.30;3.85;;;20.80;66.60;;;;;;5051440;28;20495;-72
2024/04/05 03:52:16;;;;;;;7.47;4.22;;;20.80;66.50;;;;;;5023897;28;20052;-72
2024/04/05 03:54:42;;;;;;;10.02;4.85;;;20.90;66.70;;;;;;5051092;28;20021;-72
2024/04/05 03:57:07;;;;;;;10.55;4.75;;;20.80;66.50;;;;;;5050245;28;20448;-72
2024/04/05 03:59:33;;;;;;;10.77;4.32;;;20.90;66.60;;;;;;5052219;28;20617;-72
2024/04/05 04:01:59;;;;;;;9.25;3.80;;;20.90;66.50;;;;;;5050425;28;20442;-72
2024/04/05 04:04:25;;;;;;;7.40;4.10;;;20.90;66.60;;;;;;5050242;28;20412;-72
2024/04/05 04:06:50;;;;;;;10.48;4.38;;;20.90;66.60;;;;;;5051031;28;20129;-72
2024/04/05 04:09:17;;;;;;;7.18;3.72;;;20.90;66.70;;;;;;5050074;28;20041;-72
2024/04/05 04:11:43;;;;;;;9.32;4.60;;;20.80;66.50;;;;;;5050000;28;20029;-72
2024/04/05 04:14:09;;;;;;;6.25;3.72;;;20.90;66.60;;;;;;5032314;28;20428;-72
2024/04/05 04:16:35;;;;;;;5.95;3.35;;;20.80;66.50;;;;;;5050162;28;20024;-72
2024/04/05 04:19:01;;;;;;;7.93;3.63;;;20.90;66.60;;;;;;5050509;28;20431;-72
2024/04/05 04:21:27;;;;;;;8.10;4.30;;;20.90;66.60;;;;;;5050228;28;20188;-72
2024/04/05 04:23:53;;;;;;;5.10;2.90;;;20.90;66.60;;;;;;5050434;28;20032;-72
2024/04/05 04:26:20;;;;;;;5.90;3.53;;;20.90;66.60;;;;;;5049356;28;20418;-72
2024/04/05 04:28:48;;;;;;;6.88;3.28;;;20.90;66.50;;;;;;5050593;28;20104;-72
2024/04/05 04:31:21;;;;;;;8.38;3.05;;;20.90;66.50;;;;;;5049517;28;20337;-72
2024/04/05 04:33:51;;;;;;;7.78;3.33;;;20.80;66.50;;;;;;5050311;28;20438;-72
2024/04/05 04:36:21;;;;;;;8.05;3.60;;;20.90;66.50;;;;;;5049661;28;20162;-72
2024/04/05 04:38:47;;;;;;;9.40;3.70;;;20.90;66.60;;;;;;5050483;28;20449;-72
2024/04/05 04:41:13;;;;;;;8.05;3.58;;;20.90;66.70;;;;;;5049067;28;20382;-72
2024/04/05 04:43:42;;;;;;;7.32;3.38;;;20.90;66.70;;;;;;5050190;28;20029;-72
2024/04/05 04:46:10;;;;;;;11.63;3.45;;;20.80;66.50;;;;;;5049299;28;20086;-72
2024/04/05 04:48:37;;;;;;;4.15;2.63;;;20.80;66.60;;;;;;5050398;28;20629;-72
2024/04/05 04:51:03;;;;;;;7.00;3.00;;;20.90;66.60;;;;;;5050043;28;20117;-72
2024/04/05 04:53:29;;;;;;;6.90;3.30;;;20.80;66.50;;;;;;5049951;28;20465;-72
2024/04/05 04:55:55;;;;;;;8.18;3.40;;;20.80;66.40;;;;;;5032017;28;20292;-72
2024/04/05 04:58:23;;;;;;;6.28;3.55;;;20.80;66.40;;;;;;5049185;28;20039;-72
2024/04/05 05:00:49;;;;;;;5.55;3.35;;;20.90;66.50;;;;;;5049633;28;20051;-72
2024/04/05 05:03:15;;;;;;;4.82;2.67;;;20.80;66.50;;;;;;5049300;28;20051;-72
2024/04/05 05:05:42;;;;;;;8.27;3.88;;;20.90;66.50;;;;;;5049184;28;20737;-72
2024/04/05 05:08:11;;;;;;;4.25;2.65;;;20.90;66.50;;;;;;5049395;28;20044;-72
2024/04/05 05:10:38;;;;;;;4.93;2.33;;;20.90;66.50;;;;;;5049854;28;20028;-72
2024/04/05 05:13:10;;;;;;;6.68;2.83;;;20.80;67.20;;;;;;5048730;28;20037;-72
2024/04/05 05:15:36;;;;;;;8.63;3.35;;;20.80;66.40;;;;;;5046962;28;20064;-72
2024/04/05 05:18:02;;;;;;;3.78;2.47;;;20.90;66.50;;;;;;5048740;28;20493;-72
2024/04/05 05:20:28;;;;;;;8.65;2.67;;;20.80;66.40;;;;;;5049387;28;20103;-72
2024/04/05 05:22:54;;;;;;;8.90;2.78;;;20.90;66.50;;;;;;5049059;28;20043;-72
2024/04/05 05:25:20;;;;;;;4.57;2.45;;;20.80;66.40;;;;;;5048931;28;20616;-72
2024/04/05 05:27:46;;;;;;;4.40;2.40;;;20.80;66.40;;;;;;5049058;28;20133;-72
2024/04/05 05:30:15;;;;;;;3.90;2.50;;;20.90;67.30;;;;;;5049021;28;20721;-72
2024/04/05 05:32:41;;;;;;;7.07;2.90;;;20.80;66.40;;;;;;5048647;28;20256;-72
2024/04/05 05:35:08;;;;;;;6.80;2.67;;;20.80;66.40;;;;;;5048507;28;20395;-72
2024/04/05 05:37:34;;;;;;;4.43;2.40;;;20.90;66.40;;;;;;5048947;28;20067;-72
2024/04/05 05:40:00;;;;;;;3.03;2.05;;;20.90;66.40;;;;;;5049455;28;20481;-72
2024/04/05 05:42:29;;;;;;;7.70;2.65;;;20.80;66.50;;;;;;5048508;28;20029;-72
2024/04/05 05:44:55;;;;;;;6.38;2.72;;;20.80;66.40;;;;;;5049099;28;20088;-72
2024/04/05 05:47:21;;;;;;;4.13;2.88;;;20.80;66.40;;;;;;5048405;28;20406;-72
2024/04/05 05:49:51;;;;;;;4.88;2.17;;;20.80;66.50;;;;;;5048929;28;20469;-72
2024/04/05 05:52:17;;;;;;;4.22;2.35;;;20.80;66.50;;;;;;5048474;28;20040;-72
2024/04/05 05:54:43;;;;;;;4.32;2.25;;;20.80;66.40;;;;;;5048559;28;20304;-72
2024/04/05 05:57:09;;;;;;;10.90;2.65;;;20.80;66.40;;;;;;5047896;28;20028;-72
2024/04/05 05:59:34;;;;;;;12.13;2.88;;;20.90;66.50;;;;;;5049730;28;20438;-72
2024/04/05 06:02:00;;;;;;;6.70;2.20;;;20.90;66.50;;;;;;5048709;28;20367;-72
2024/04/05 06:04:26;;;;;;;8.88;2.10;;;20.80;66.40;;;;;;5048178;28;20059;-72
2024/04/05 06:06:52;;;;;;;2.67;2.00;;;20.80;66.70;;;;;;5048785;28;20033;-72
2024/04/05 06:09:18;;;;;;;7.88;2.45;;;20.80;66.70;;;;;;5048885;28;20408;-72
2024/04/05 06:11:46;;;;;;;5.90;1.88;;;20.80;66.60;;;;;;5048245;28;20489;-72
2024/04/05 06:14:13;;;;;;;5.00;2.53;;;20.90;66.60;;;;;;5046444;28;20371;-72
2024/04/05 06:16:39;;;;;;;3.95;2.05;;;20.90;66.50;;;;;;5048435;28;20040;-72
2024/04/05 06:19:05;;;;;;;8.85;2.25;;;20.80;66.50;;;;;;5049169;28;20037;-72
2024/04/05 06:21:30;;;;;;;4.70;2.83;;;20.90;66.50;;;;;;5046705;28;20028;-72
2024/04/05 06:23:59;;;;;;;7.97;2.65;;;20.80;66.40;;;;;;5049859;28;20050;-72
2024/04/05 06:26:26;;;;;;;7.90;2.05;;;20.80;66.40;;;;;;5047465;28;20454;-72
2024/04/05 06:28:51;;;;;;;4.97;2.05;;;20.90;66.60;;;;;;5046592;28;20178;-72
2024/04/05 06:31:17;;;;;;;3.70;1.65;;;20.80;66.50;;;;;;5048525;28;20025;-72
2024/04/05 06:33:46;;;;;;;6.10;1.83;;;20.90;66.50;;;;;;5048776;28;20025;-72
2024/04/05 06:36:12;;;;;;;6.63;2.93;;;20.80;66.50;;;;;;5046220;28;20024;-72
2024/04/05 06:38:38;;;;;;;8.13;1.75;;;20.90;66.50;;;;;;5048656;28;20051;-72
2024/04/05 06:41:04;;;;;;;5.18;2.25;;;20.90;66.40;;;;;;5048292;28;20434;-72
2024/04/05 06:43:31;;;;;;;3.35;2.28;;;20.90;66.40;;;;;;5046432;28;20036;-72
2024/04/05 06:46:03;;;;;;;5.72;1.70;;;20.80;66.40;;;;;;5049185;28;20033;-72
2024/04/05 06:48:31;;;;;;;6.57;2.05;;;20.80;66.40;;;;;;5048351;28;20029;-74
2024/04/05 06:50:57;;;;;;;16.08;2.75;;;20.90;67.30;;;;;;5048597;28;20068;-74
2024/04/05 06:53:30;;;;;;;6.18;2.42;;;20.90;67.20;;;;;;5048113;28;20407;-74
2024/04/05 06:55:56;;;;;;;11.57;2.85;;;20.90;67.70;;;;;;5045861;28;20040;-74
2024/04/05 06:58:24;;;;;;;6.95;2.55;;;20.90;67.70;;;;;;5048758;28;20021;-73
2024/04/05 07:00:50;;;;;;;5.80;2.30;;;20.90;67.40;;;;;;5050431;28;20418;-74
2024/04/05 07:03:18;;;;;;;5.93;2.13;;;20.90;66.80;;;;;;5048334;28;20051;-74
2024/04/05 07:05:43;;;;;;;5.70;2.35;;;20.90;66.60;;;;;;5050410;28;20047;-74
2024/04/05 07:08:09;;;;;;;9.13;2.75;;;20.90;66.20;;;;;;5052085;28;20036;-74
2024/04/05 07:10:37;;;;;;;3.67;2.03;;;20.90;66.00;;;;;;5052240;28;20341;-74
2024/04/05 07:13:03;;;;;;;5.50;2.25;;;20.90;65.90;;;;;;5051639;28;20394;-75
2024/04/05 07:15:31;;;;;;;8.52;2.58;;;20.90;65.90;;;;;;5052170;28;20051;-74
2024/04/05 07:17:57;;;;;;;10.32;2.70;;;21.00;65.90;;;;;;5051940;28;20047;-74
2024/04/05 07:20:26;;;;;;;7.45;2.38;;;20.90;65.80;;;;;;5052678;28;20029;-74
2024/04/05 07:22:53;;;;;;;5.32;2.55;;;21.00;66.70;;;;;;5051946;28;20039;-74
2024/04/05 07:25:20;;;;;;;7.90;2.55;;;21.00;65.90;;;;;;5051489;28;20594;-74
2024/04/05 07:27:51;;;;;;;9.60;2.70;;;21.00;66.00;;;;;;5051854;28;20108;-74
2024/04/05 07:30:18;;;;;;;4.97;2.50;;;21.00;66.10;;;;;;5051834;28;20093;-74
2024/04/05 07:32:44;;;;;;;9.27;3.35;;;21.00;66.20;;;;;;5051424;28;20040;-74
2024/04/05 07:35:09;;;;;;;7.65;2.78;;;21.00;66.30;;;;;;5050880;28;20440;-74
2024/04/05 07:37:35;;;;;;;8.43;2.95;;;21.00;66.50;;;;;;5051396;28;20499;-74
2024/04/05 07:40:01;;;;;;;22.75;3.78;;;21.00;66.50;;;;;;5052058;28;20039;-75
2024/04/05 07:42:28;;;;;;;13.18;4.35;;;21.00;66.50;;;;;;5050895;28;20111;-74
2024/04/05 07:44:54;;;;;;;11.55;3.42;;;21.00;66.50;;;;;;5051876;28;20024;-74
2024/04/05 07:47:20;;;;;;;12.77;3.50;;;21.00;66.50;;;;;;5051001;28;20036;-74
2024/04/05 07:49:49;;;;;;;10.55;3.33;;;21.10;66.50;;;;;;5051513;28;20020;-74
2024/04/05 07:52:15;;;;;;;14.88;3.75;;;21.00;66.70;;;;;;5050886;28;20040;-74
2024/04/05 07:54:43;;;;;;;9.05;3.47;;;21.10;67.00;;;;;;5051446;28;20376;-74
2024/04/05 07:57:09;;;;;;;14.00;3.95;;;21.10;67.20;;;;;;5051440;28;20028;-74
2024/04/05 07:59:36;;;;;;;10.25;3.95;;;21.10;67.40;;;;;;5048900;28;20414;-74
2024/04/05 08:02:02;;;;;;;13.50;4.50;;;21.10;67.50;;;;;;5050910;28;20187;-74
2024/04/05 08:04:28;;;;;;;12.40;3.88;;;21.10;67.80;;;;;;5051028;28;20431;-74
2024/04/05 08:06:57;;;;;;;15.35;4.18;;;21.10;68.30;;;;;;5051183;28;20372;-74
2024/04/05 08:09:24;;;;;;;15.88;3.45;;;21.10;68.60;;;;;;5050488;28;20051;-74
2024/04/05 08:11:50;;;;;;;15.73;3.97;;;21.10;68.60;;;;;;5050218;28;20044;-74
2024/04/05 08:14:16;;;;;;;11.15;4.72;;;21.10;68.60;;;;;;5050964;28;20342;-74
2024/04/05 08:16:42;;;;;;;10.40;3.67;;;21.10;68.40;;;;;;5032160;28;20020;-74
2024/04/05 08:19:07;;;;;;;15.13;3.95;;;21.20;68.30;;;;;;5050655;28;20332;-75
2024/04/05 08:21:33;;;;;;;17.85;4.55;;;21.20;68.10;;;;;;5051909;28;20063;-74
2024/04/05 08:23:59;;;;;;;24.10;5.65;;;21.20;67.90;;;;;;5051144;28;20024;-74
2024/04/05 08:26:25;;;;;;;20.20;6.20;;;21.20;67.60;;;;;;5049799;28;20063;-74
2024/04/05 08:28:52;;;;;;;13.43;5.35;;;21.20;67.40;;;;;;5051107;28;20028;-74
2024/04/05 08:31:18;;;;;;;21.85;6.05;;;21.20;67.20;;;;;;5050179;28;20389;-75
2024/04/05 08:33:44;;;;;;;22.35;8.65;;;21.20;67.00;;;;;;5050839;28;20040;-76
2024/04/05 08:36:10;;;;;;;27.40;11.35;;;21.20;66.90;;;;;;5050120;28;20047;-76
2024/04/05 08:38:36;;;;;;;35.78;13.38;;;21.20;66.70;;;;;;5051050;28;20485;-76
2024/04/05 08:41:06;;;;;;;34.47;13.82;;;21.20;66.60;;;;;;5050262;28;20443;-76
2024/04/05 08:43:37;;;;;;;38.75;14.80;;;21.20;66.50;;;;;;5050886;28;20028;-75
2024/04/05 08:46:04;;;;;;;39.08;14.57;;;21.20;66.40;;;;;;5049958;28;20426;-75
2024/04/05 08:48:34;;;;;;;38.63;15.82;;;21.20;66.40;;;;;;5050439;28;20448;-75
2024/04/05 08:51:01;;;;;;;40.90;16.35;;;21.20;66.40;;;;;;5050380;28;20047;-75
2024/04/05 08:53:27;;;;;;;39.42;16.92;;;21.20;66.30;;;;;;5050091;28;20410;-75
2024/04/05 08:55:58;;;;;;;40.85;16.95;;;21.20;66.40;;;;;;5050318;28;20029;-75
2024/04/05 08:58:24;;;;;;;34.25;16.63;;;21.20;66.20;;;;;;5049606;28;20456;-75
2024/04/05 09:00:51;;;;;;;35.80;15.38;;;21.20;66.10;;;;;;5050434;28;20039;-76
2024/04/05 09:03:17;;;;;;;35.30;14.77;;;21.20;66.10;;;;;;5048928;28;20021;-75
2024/04/05 09:05:43;;;;;;;41.05;14.70;;;21.20;66.10;;;;;;5048833;28;20373;-75
2024/04/05 09:08:09;;;;;;;28.38;12.35;;;21.20;66.00;;;;;;5047291;28;20232;-76
2024/04/05 09:10:35;;;;;;;32.38;13.07;;;21.20;65.90;;;;;;5047462;28;20041;-76
2024/04/05 09:13:04;;;;;;;33.20;11.25;;;21.30;66.60;;;;;;5048247;28;20036;-76
2024/04/05 09:15:31;;;;;;;24.25;11.15;;;21.30;65.70;;;;;;5048227;28;20499;-76
2024/04/05 09:17:57;;;;;;;34.90;13.40;;;21.30;65.60;;;;;;5048503;28;20121;-75
2024/04/05 09:20:29;;;;;;;26.48;10.25;;;21.30;65.50;;;;;;5048861;28;20457;-75
2024/04/05 09:23:01;;;;;;;27.23;10.70;;;21.30;65.40;;;;;;5049651;28;20097;-75
2024/04/05 09:25:35;;;;;;;36.95;10.57;;;21.30;65.40;;;;;;5049937;28;20350;-76
2024/04/05 09:28:05;;;;;;;26.02;10.27;;;21.30;65.40;;;;;;5047481;28;20497;-76
2024/04/05 09:30:31;;;;;;;20.83;9.02;;;21.30;65.20;;;;;;5049410;28;20032;-75
2024/04/05 09:32:57;;;;;;;24.02;8.10;;;21.30;65.10;;;;;;5048992;28;20362;-76
2024/04/05 09:35:26;;;;;;;21.05;7.82;;;21.30;65.10;;;;;;5049378;28;20497;-76
2024/04/05 09:37:54;;;;;;;23.55;7.72;;;21.30;65.00;;;;;;5049560;28;20037;-75
2024/04/05 09:40:25;;;;;;;17.25;7.13;;;21.30;65.00;;;;;;5031382;28;20028;-76
2024/04/05 09:42:54;;;;;;;20.17;7.80;;;21.30;64.90;;;;;;5049297;28;20331;-75
2024/04/05 09:45:26;;;;;;;20.27;7.43;;;21.30;64.90;;;;;;5048473;28;20028;-75
2024/04/05 09:47:53;;;;;;;20.52;6.95;;;21.30;64.90;;;;;;5049322;28;20489;-76
2024/04/05 09:50:22;;;;;;;14.45;6.55;;;21.30;64.80;;;;;;5048543;28;20033;-76
2024/04/05 09:52:51;;;;;;;18.67;6.05;;;21.40;64.90;;;;;;5046509;28;20060;-76
2024/04/05 09:55:20;;;;;;;15.77;5.20;;;21.40;64.80;;;;;;5048946;28;20024;-76
2024/04/05 09:57:46;;;;;;;20.27;5.57;;;21.40;64.80;;;;;;5049221;28;20376;-76
2024/04/05 10:00:20;;;;;;;12.77;5.75;;;21.40;64.90;;;;;;5049251;28;20032;-76
2024/04/05 10:02:50;;;;;;;16.45;5.30;;;21.40;64.80;;;;;;5048626;28;20434;-75
2024/04/05 10:05:36;;;;;;;23.58;6.70;;;21.40;65.50;;;;;;5049011;28;20032;-76
2024/04/05 10:08:17;;;;;;;15.25;5.53;;;21.40;64.80;;;;;;5047063;28;20037;-76
2024/04/05 10:10:44;;;;;;;15.52;5.78;;;21.40;64.80;;;;;;5049308;28;20334;-75
2024/04/05 10:13:27;;;;;;;16.50;5.45;;;21.40;64.90;;;;;;5049145;28;20426;-76
2024/04/05 10:15:57;;;;;;;14.07;5.35;;;21.40;64.80;;;;;;5049117;28;20036;-76
2024/04/05 10:18:27;;;;;;;16.30;5.13;;;21.40;64.80;;;;;;5048352;28;20025;-76
2024/04/05 10:21:11;;;;;;;18.35;4.80;;;21.40;64.80;;;;;;5048826;28;20086;-76
2024/04/05 10:23:38;;;;;;;8.15;3.95;;;21.40;64.80;;;;;;5047568;28;20454;-76
2024/04/05 10:26:10;;;;;;;16.05;3.95;;;21.40;64.80;;;;;;5048422;28;20449;-76
2024/04/05 10:28:37;;;;;;;8.82;3.33;;;21.40;64.80;;;;;;5046506;28;20060;-76
2024/04/05 10:31:05;;;;;;;12.68;4.22;;;21.40;64.90;;;;;;5048425;28;20078;-76
2024/04/05 10:33:32;;;;;;;10.55;4.15;;;21.40;64.60;;;;;;5049255;28;20289;-76
2024/04/05 10:35:59;;;;;;;9.88;3.92;;;21.40;64.70;;;;;;5049552;28;20021;-76
2024/04/05 10:38:29;;;;;;;15.10;4.20;;;21.40;64.70;;;;;;5048057;28;20093;-73
2024/04/05 10:41:02;;;;;;;13.55;3.45;;;21.40;64.90;;;;;;5048407;28;20062;-72
2024/04/05 10:43:28;;;;;;;16.85;3.65;;;21.40;65.20;;;;;;5053079;28;20440;-70
2024/04/05 10:45:58;;;;;;;21.45;4.15;;;21.40;65.30;;;;;;5052187;28;20036;-70
2024/04/05 10:48:24;;;;;;;11.68;3.38;;;21.40;65.40;;;;;;5052021;28;20484;-72
2024/04/05 10:50:51;;;;;;;13.07;3.53;;;21.40;65.40;;;;;;5053103;28;20064;-72
2024/04/05 10:53:18;;;;;;;21.42;4.22;;;21.40;65.40;;;;;;5052080;28;20040;-72
2024/04/05 10:55:51;;;;;;;13.55;3.70;;;21.40;65.40;;;;;;5052728;28;20028;-72
2024/04/05 10:58:17;;;;;;;16.52;3.70;;;21.40;65.40;;;;;;5052258;28;20035;-72
2024/04/05 11:00:44;;;;;;;12.25;3.50;;;21.40;65.40;;;;;;5052453;28;20436;-72
2024/04/05 11:03:13;;;;;;;16.20;3.03;;;21.40;65.50;;;;;;5051969;28;20429;-72
2024/04/05 11:05:39;;;;;;;13.23;4.10;;;21.40;65.40;;;;;;5052296;28;20465;-72
2024/04/05 11:08:08;;;;;;;9.35;3.20;;;21.40;65.40;;;;;;5051917;28;20393;-71
2024/04/05 11:10:35;;;;;;;17.75;3.90;;;21.30;65.60;;;;;;5052095;28;20395;-72
2024/04/05 11:13:18;;;;;;;13.82;3.92;;;21.30;65.80;;;;;;5052147;28;20036;-72
2024/04/05 11:15:45;;;;;;;14.95;4.03;;;21.30;66.20;;;;;;5029497;28;20025;-72
2024/04/05 11:18:14;;;;;;;23.42;5.38;;;21.20;66.40;;;;;;5051884;28;20025;-72
2024/04/05 11:20:41;;;;;;;21.90;6.20;;;21.20;66.80;;;;;;5051298;28;20450;-72
2024/04/05 11:23:14;;;;;;;19.63;6.82;;;21.20;67.10;;;;;;5052314;28;20349;-72
2024/04/05 11:25:40;;;;;;;28.20;9.55;;;21.20;67.50;;;;;;5051643;28;20036;-72
2024/04/05 11:28:14;;;;;;;33.45;9.95;;;21.30;67.60;;;;;;5052561;28;20060;-72
2024/04/05 11:30:40;;;;;;;30.52;8.77;;;21.30;67.50;;;;;;5051443;28;20105;-72
2024/04/05 11:33:10;;;;;;;39.47;10.23;;;21.30;67.40;;;;;;5051204;28;20043;-72
2024/04/05 11:35:37;;;;;;;;;;;21.40;67.50;;;;;;5052987;28;20024;-72
2024/04/05 11:38:04;;;;;;;27.80;9.75;;;21.40;67.60;;;;;;5050763;28;19908;-72
2024/04/05 11:40:30;;;;;;;23.15;8.82;;;21.30;67.70;;;;;;5051546;28;20373;-72
2024/04/05 11:42:56;;;;;;;20.67;9.15;;;21.30;68.70;;;;;;5052785;28;20037;-72
2024/04/05 11:45:23;;;;;;;28.45;10.40;;;21.30;68.00;;;;;;5051071;28;20422;-72
2024/04/05 11:47:52;;;;;;;28.95;8.38;;;21.30;68.10;;;;;;5051427;28;20028;-72
2024/04/05 11:50:18;;;;;;;32.97;8.65;;;21.30;68.10;;;;;;5051268;28;20063;-72
2024/04/05 11:52:43;;;;;;;30.52;8.50;;;21.30;68.00;;;;;;5049438;28;20358;-72
2024/04/05 11:55:09;;;;;;;17.20;7.90;;;21.30;67.90;;;;;;5033163;28;20024;-72
2024/04/05 11:57:35;;;;;;;26.02;8.63;;;21.30;68.00;;;;;;5051307;28;20039;-72
2024/04/05 12:00:10;;;;;;;23.60;7.38;;;21.30;68.00;;;;;;5051418;28;20033;-72
2024/04/05 12:02:37;;;;;;;21.60;8.65;;;21.30;68.00;;;;;;5051010;28;20358;-72
2024/04/05 12:05:03;;;;;;;22.08;7.88;;;21.30;68.00;;;;;;5051288;28;20364;-72
2024/04/05 12:07:29;;;;;;;18.85;8.43;;;21.30;67.90;;;;;;5050825;28;20459;-72
2024/04/05 12:09:55;;;;;;;24.13;8.05;;;21.30;68.00;;;;;;5051433;28;20032;-72
2024/04/05 12:12:21;;;;;;;20.98;7.32;;;21.30;67.80;;;;;;5050131;28;20101;-72
2024/04/05 12:14:46;;;;;;;26.73;8.07;;;21.30;67.80;;;;;;5051326;28;20025;-72
2024/04/05 12:17:12;;;;;;;19.10;6.95;;;21.30;67.80;;;;;;5050349;28;20458;-72
2024/04/05 12:19:39;;;;;;;14.75;6.47;;;21.30;67.80;;;;;;5051058;28;20036;-72
2024/04/05 12:22:05;;;;;;;25.45;7.65;;;21.30;67.70;;;;;;5050267;28;20096;-72
2024/04/05 12:24:32;;;;;;;20.58;7.45;;;21.30;67.70;;;;;;5050877;28;20103;-72
2024/04/05 12:26:58;;;;;;;21.67;7.65;;;21.30;67.60;;;;;;5051093;28;20036;-72
2024/04/05 12:29:24;;;;;;;18.73;6.80;;;21.30;67.60;;;;;;5050270;28;20101;-72
2024/04/05 12:31:52;;;;;;;22.52;9.07;;;21.30;67.60;;;;;;5050731;28;20446;-72
2024/04/05 12:34:18;;;;;;;24.63;8.98;;;21.30;67.70;;;;;;5050344;28;20087;-72
2024/04/05 12:36:43;;;;;;;24.08;7.88;;;21.30;68.10;;;;;;5050260;28;20596;-73
2024/04/05 12:39:29;;;;;;;20.45;7.22;;;21.30;68.20;;;;;;5032055;28;20029;-72